sensor_id;sensor_type;location;lat;lon;timestamp;pressure;altitude;pressure_sealevel;temperature;humidity
48035;BME280;33812;46.480;6.834;2023-02-19T00:04:12;94565.38;;;22.78;35.86
48035;BME280;33812;46.480;6.834;2023-02-19T00:08:34;94566.16;;;22.79;35.74
48035;BME280;33812;46.480;6.834;2023-02-19T00:12:43;94558.72;;;22.76;35.45
48035;BME280;33812;46.480;6.834;2023-02-19T00:16:50;94563.81;;;22.77;35.80
48035;BME280;33812;46.480;6.834;2023-02-19T00:21:02;94563.81;;;22.77;35.63
48035;BME280;33812;46.480;6.834;2023-02-19T00:25:05;94561.50;;;22.76;35.86
48035;BME280;33812;46.480;6.834;2023-02-19T00:29:16;94558.72;;;22.76;35.73
48035;BME280;33812;46.480;6.834;2023-02-19T00:33:20;94567.47;;;22.74;35.81
48035;BME280;33812;46.480;6.834;2023-02-19T00:37:26;94567.91;;;22.73;35.73
48035;BME280;33812;46.480;6.834;2023-02-19T00:41:28;94563.91;;;22.74;35.70
48035;BME280;33812;46.480;6.834;2023-02-19T00:45:34;94563.22;;;22.69;35.74
48035;BME280;33812;46.480;6.834;2023-02-19T00:49:38;94571.84;;;22.72;35.52
48035;BME280;33812;46.480;6.834;2023-02-19T00:53:42;94570.31;;;22.70;35.68
48035;BME280;33812;46.480;6.834;2023-02-19T00:57:52;94561.56;;;22.72;35.54
48035;BME280;33812;46.480;6.834;2023-02-19T01:02:13;94564.78;;;22.70;35.40
48035;BME280;33812;46.480;6.834;2023-02-19T01:06:17;94571.94;;;22.68;35.32
48035;BME280;33812;46.480;6.834;2023-02-19T01:10:40;94564.41;;;22.68;35.41
48035;BME280;33812;46.480;6.834;2023-02-19T01:15:00;94565.63;;;22.67;35.40
48035;BME280;33812;46.480;6.834;2023-02-19T01:19:08;94560.09;;;22.67;35.32
48035;BME280;33812;46.480;6.834;2023-02-19T01:23:18;94560.84;;;22.68;35.03
48035;BME280;33812;46.480;6.834;2023-02-19T01:27:28;94561.63;;;22.68;34.93
48035;BME280;33812;46.480;6.834;2023-02-19T01:31:32;94565.28;;;22.65;35.24
48035;BME280;33812;46.480;6.834;2023-02-19T01:35:37;94559.75;;;22.65;35.05
48035;BME280;33812;46.480;6.834;2023-02-19T01:39:41;94549.09;;;22.64;34.89
48035;BME280;33812;46.480;6.834;2023-02-19T01:44:04;94556.19;;;22.65;35.07
48035;BME280;33812;46.480;6.834;2023-02-19T01:48:17;94549.09;;;22.64;34.84
48035;BME280;33812;46.480;6.834;2023-02-19T01:52:39;94543.97;;;22.62;34.99
48035;BME280;33812;46.480;6.834;2023-02-19T01:56:43;94546.75;;;22.62;34.99
48035;BME280;33812;46.480;6.834;2023-02-19T02:00:48;94540.41;;;22.62;34.79
48035;BME280;33812;46.480;6.834;2023-02-19T02:04:55;94538.06;;;22.60;34.95
48035;BME280;33812;46.480;6.834;2023-02-19T02:09:05;94545.13;;;22.61;34.88
48035;BME280;33812;46.480;6.834;2023-02-19T02:13:29;94528.59;;;22.57;34.68
48035;BME280;33812;46.480;6.834;2023-02-19T02:17:44;94525.75;;;22.61;34.55
48035;BME280;33812;46.480;6.834;2023-02-19T02:22:11;94519.88;;;22.59;34.51
48035;BME280;33812;46.480;6.834;2023-02-19T02:26:28;94511.97;;;22.57;34.74
48035;BME280;33812;46.480;6.834;2023-02-19T02:30:52;94513.56;;;22.58;34.65
48035;BME280;33812;46.480;6.834;2023-02-19T02:35:00;94510.78;;;22.58;34.51
48035;BME280;33812;46.480;6.834;2023-02-19T02:39:08;94500.50;;;22.59;34.69
48035;BME280;33812;46.480;6.834;2023-02-19T02:43:14;94489.88;;;22.54;34.68
48035;BME280;33812;46.480;6.834;2023-02-19T02:47:17;94489.03;;;22.57;34.55
48035;BME280;33812;46.480;6.834;2023-02-19T02:51:51;94485.06;;;22.58;34.41
48035;BME280;33812;46.480;6.834;2023-02-19T03:00:00;94481.94;;;22.56;34.45
48035;BME280;33812;46.480;6.834;2023-02-19T03:04:07;94476.41;;;22.56;34.32
48035;BME280;33812;46.480;6.834;2023-02-19T03:08:13;94468.09;;;22.56;34.54
48035;BME280;33812;46.480;6.834;2023-02-19T03:12:18;94477.63;;;22.55;34.34
48035;BME280;33812;46.480;6.834;2023-02-19T03:16:41;94466.97;;;22.53;34.20
48035;BME280;33812;46.480;6.834;2023-02-19T03:21:06;94460.22;;;22.54;34.14
48035;BME280;33812;46.480;6.834;2023-02-19T03:25:11;94459.84;;;22.52;34.28
48035;BME280;33812;46.480;6.834;2023-02-19T03:29:34;94452.31;;;22.53;34.25
48035;BME280;33812;46.480;6.834;2023-02-19T03:33:38;94464.63;;;22.52;34.17
48035;BME280;33812;46.480;6.834;2023-02-19T03:37:44;94463.06;;;22.51;33.92
48035;BME280;33812;46.480;6.834;2023-02-19T03:41:52;94458.31;;;22.51;34.01
48035;BME280;33812;46.480;6.834;2023-02-19T03:46:04;94463.06;;;22.51;34.04
48035;BME280;33812;46.480;6.834;2023-02-19T03:50:13;94458.31;;;22.51;33.90
48035;BME280;33812;46.480;6.834;2023-02-19T03:54:22;94457.50;;;22.51;33.98
48035;BME280;33812;46.480;6.834;2023-02-19T03:58:34;94455.97;;;22.50;33.84
48035;BME280;33812;46.480;6.834;2023-02-19T04:02:44;94457.50;;;22.51;33.91
48035;BME280;33812;46.480;6.834;2023-02-19T04:06:51;94471.00;;;22.49;34.05
48035;BME280;33812;46.480;6.834;2023-02-19T04:10:57;94471.00;;;22.49;34.15
48035;BME280;33812;46.480;6.834;2023-02-19T04:15:00;94475.00;;;22.48;34.08
48035;BME280;33812;46.480;6.834;2023-02-19T04:19:08;94473.44;;;22.46;34.01
48035;BME280;33812;46.480;6.834;2023-02-19T04:23:11;94477.41;;;22.45;34.06
48035;BME280;33812;46.480;6.834;2023-02-19T04:27:16;94482.94;;;22.45;33.81
48035;BME280;33812;46.480;6.834;2023-02-19T04:31:18;94482.94;;;22.45;34.00
48035;BME280;33812;46.480;6.834;2023-02-19T04:35:20;94486.16;;;22.44;33.86
48035;BME280;33812;46.480;6.834;2023-02-19T04:39:22;94503.56;;;22.44;33.86
48035;BME280;33812;46.480;6.834;2023-02-19T04:43:25;94504.75;;;22.43;33.53
48035;BME280;33812;46.480;6.834;2023-02-19T04:47:26;94514.63;;;22.44;33.58
48035;BME280;33812;46.480;6.834;2023-02-19T04:51:28;94527.69;;;22.44;33.67
48035;BME280;33812;46.480;6.834;2023-02-19T04:55:30;94526.16;;;22.43;33.58
48035;BME280;33812;46.480;6.834;2023-02-19T04:59:33;94524.13;;;22.43;33.79
48035;BME280;33812;46.480;6.834;2023-02-19T05:03:36;94534.47;;;22.43;33.53
48035;BME280;33812;46.480;6.834;2023-02-19T05:07:38;94549.94;;;22.40;33.48
48035;BME280;33812;46.480;6.834;2023-02-19T05:11:40;94555.47;;;22.40;33.27
48035;BME280;33812;46.480;6.834;2023-02-19T05:15:53;94541.63;;;22.40;33.28
48035;BME280;33812;46.480;6.834;2023-02-19T05:19:54;94521.88;;;22.38;33.06
48035;BME280;33812;46.480;6.834;2023-02-19T05:23:56;94526.22;;;22.39;32.99
48035;BME280;33812;46.480;6.834;2023-02-19T05:27:58;94533.75;;;22.39;33.12
48035;BME280;33812;46.480;6.834;2023-02-19T05:32:16;94510.81;;;22.38;33.13
48035;BME280;33812;46.480;6.834;2023-02-19T05:36:20;94496.63;;;22.36;33.34
48035;BME280;33812;46.480;6.834;2023-02-19T05:40:21;94480.00;;;22.36;33.06
48035;BME280;33812;46.480;6.834;2023-02-19T05:44:23;94474.47;;;22.36;33.15
48035;BME280;33812;46.480;6.834;2023-02-19T05:48:26;94483.97;;;22.35;33.50
48035;BME280;33812;46.480;6.834;2023-02-19T05:52:28;94473.69;;;22.36;33.35
48035;BME280;33812;46.480;6.834;2023-02-19T05:56:32;94453.50;;;22.35;33.93
48035;BME280;33812;46.480;6.834;2023-02-19T06:00:34;94449.97;;;22.34;33.57
48035;BME280;33812;46.480;6.834;2023-02-19T06:04:38;94459.03;;;22.35;33.43
48035;BME280;33812;46.480;6.834;2023-02-19T06:08:40;94472.47;;;22.37;33.36
48035;BME280;33812;46.480;6.834;2023-02-19T06:12:42;94476.88;;;22.34;33.47
48035;BME280;33812;46.480;6.834;2023-02-19T06:16:44;94494.28;;;22.34;33.71
48035;BME280;33812;46.480;6.834;2023-02-19T06:20:47;94489.50;;;22.35;33.43
48035;BME280;33812;46.480;6.834;2023-02-19T06:24:49;94501.81;;;22.34;33.49
48035;BME280;33812;46.480;6.834;2023-02-19T06:28:52;94505.34;;;22.34;33.35
48035;BME280;33812;46.480;6.834;2023-02-19T06:32:53;94504.56;;;22.34;33.74
48035;BME280;33812;46.480;6.834;2023-02-19T06:36:57;94508.13;;;22.34;33.43
48035;BME280;33812;46.480;6.834;2023-02-19T06:40:59;94523.97;;;22.34;33.50
48035;BME280;33812;46.480;6.834;2023-02-19T06:45:02;94528.28;;;22.35;33.30
48035;BME280;33812;46.480;6.834;2023-02-19T06:49:04;94547.31;;;22.33;34.06
48035;BME280;33812;46.480;6.834;2023-02-19T06:53:07;94543.34;;;22.34;34.48
48035;BME280;33812;46.480;6.834;2023-02-19T06:57:10;94543.34;;;22.34;34.53
48035;BME280;33812;46.480;6.834;2023-02-19T07:01:12;94535.41;;;22.36;33.90
48035;BME280;33812;46.480;6.834;2023-02-19T07:05:15;94545.59;;;22.39;33.61
48035;BME280;33812;46.480;6.834;2023-02-19T07:09:18;94544.03;;;22.38;33.40
48035;BME280;33812;46.480;6.834;2023-02-19T07:13:20;94539.72;;;22.37;33.50
48035;BME280;33812;46.480;6.834;2023-02-19T07:17:21;94548.81;;;22.38;34.04
48035;BME280;33812;46.480;6.834;2023-02-19T07:21:23;94558.66;;;22.39;34.11
48035;BME280;33812;46.480;6.834;2023-02-19T07:25:26;94553.91;;;22.39;34.24
48035;BME280;33812;46.480;6.834;2023-02-19T07:29:28;94571.72;;;22.38;33.58
48035;BME280;33812;46.480;6.834;2023-02-19T07:33:30;94570.97;;;22.38;34.15
48035;BME280;33812;46.480;6.834;2023-02-19T07:37:31;94568.63;;;22.36;34.37
48035;BME280;33812;46.480;6.834;2023-02-19T07:41:34;94592.31;;;22.37;34.39
48035;BME280;33812;46.480;6.834;2023-02-19T07:45:36;94608.16;;;22.37;34.37
48035;BME280;33812;46.480;6.834;2023-02-19T07:49:39;94607.41;;;22.36;33.51
48035;BME280;33812;46.480;6.834;2023-02-19T07:53:41;94614.84;;;22.39;34.55
48035;BME280;33812;46.480;6.834;2023-02-19T07:57:44;94618.03;;;22.38;33.26
48035;BME280;33812;46.480;6.834;2023-02-19T08:01:45;94630.25;;;22.40;33.97
48035;BME280;33812;46.480;6.834;2023-02-19T08:06:05;94623.50;;;22.41;34.34
48035;BME280;33812;46.480;6.834;2023-02-19T08:10:07;94640.47;;;22.43;34.85
48035;BME280;33812;46.480;6.834;2023-02-19T08:14:28;94634.94;;;22.43;34.80
48035;BME280;33812;46.480;6.834;2023-02-19T08:18:31;94636.50;;;22.44;34.86
48035;BME280;33812;46.480;6.834;2023-02-19T08:22:33;94631.75;;;22.45;35.29
48035;BME280;33812;46.480;6.834;2023-02-19T08:26:35;94634.16;;;20.29;32.53
48035;BME280;33812;46.480;6.834;2023-02-19T08:30:41;94639.38;;;21.69;32.94
48035;BME280;33812;46.480;6.834;2023-02-19T08:34:44;94644.22;;;22.13;33.51
48035;BME280;33812;46.480;6.834;2023-02-19T08:38:46;94635.28;;;22.25;32.80
48035;BME280;33812;46.480;6.834;2023-02-19T08:42:47;94635.97;;;22.29;33.38
48035;BME280;33812;46.480;6.834;2023-02-19T08:46:52;94638.69;;;22.33;33.87
48035;BME280;33812;46.480;6.834;2023-02-19T08:50:55;94633.94;;;22.33;34.48
48035;BME280;33812;46.480;6.834;2023-02-19T08:54:57;94633.50;;;22.35;34.31
48035;BME280;33812;46.480;6.834;2023-02-19T08:58:59;94634.31;;;22.36;34.43
48035;BME280;33812;46.480;6.834;2023-02-19T09:03:03;94634.22;;;22.39;34.85
48035;BME280;33812;46.480;6.834;2023-02-19T09:07:05;94635.78;;;22.40;34.93
48035;BME280;33812;46.480;6.834;2023-02-19T09:11:09;94639.34;;;22.41;35.02
48035;BME280;33812;46.480;6.834;2023-02-19T09:15:10;94627.47;;;22.40;34.23
48035;BME280;33812;46.480;6.834;2023-02-19T09:19:13;94643.25;;;22.43;34.32
48035;BME280;33812;46.480;6.834;2023-02-19T09:23:15;94642.84;;;22.45;34.22
48035;BME280;33812;46.480;6.834;2023-02-19T09:27:18;94648.28;;;22.49;34.46
48035;BME280;33812;46.480;6.834;2023-02-19T09:31:20;94648.22;;;22.52;35.90
48035;BME280;33812;46.480;6.834;2023-02-19T09:35:23;94646.59;;;22.55;35.78
48035;BME280;33812;46.480;6.834;2023-02-19T09:39:25;94646.97;;;22.57;36.49
48035;BME280;33812;46.480;6.834;2023-02-19T09:43:27;94646.97;;;22.57;36.45
48035;BME280;33812;46.480;6.834;2023-02-19T09:47:31;94652.84;;;22.59;37.04
48035;BME280;33812;46.480;6.834;2023-02-19T09:51:37;94641.78;;;22.59;36.25
48035;BME280;33812;46.480;6.834;2023-02-19T09:55:42;94650.47;;;22.57;36.18
48035;BME280;33812;46.480;6.834;2023-02-19T09:59:47;94649.72;;;22.57;35.88
48035;BME280;33812;46.480;6.834;2023-02-19T10:03:50;94654.91;;;22.55;35.17
48035;BME280;33812;46.480;6.834;2023-02-19T10:07:54;94648.56;;;22.54;35.04
48035;BME280;33812;46.480;6.834;2023-02-19T10:11:57;94643.88;;;22.51;35.13
48035;BME280;33812;46.480;6.834;2023-02-19T10:16:02;94649.00;;;22.53;35.18
48035;BME280;33812;46.480;6.834;2023-02-19T10:20:05;94650.56;;;22.54;35.57
48035;BME280;33812;46.480;6.834;2023-02-19T10:24:13;94650.91;;;22.56;35.83
48035;BME280;33812;46.480;6.834;2023-02-19T10:28:19;94647.38;;;22.55;35.57
48035;BME280;33812;46.480;6.834;2023-02-19T10:32:24;94650.16;;;22.55;35.60
48035;BME280;33812;46.480;6.834;2023-02-19T10:36:28;94646.47;;;22.62;36.09
48035;BME280;33812;46.480;6.834;2023-02-19T10:40:32;94650.31;;;22.68;36.94
48035;BME280;33812;46.480;6.834;2023-02-19T10:44:37;94654.38;;;22.64;36.57
48035;BME280;33812;46.480;6.834;2023-02-19T10:48:46;94666.28;;;22.61;35.72
48035;BME280;33812;46.480;6.834;2023-02-19T10:52:52;94659.94;;;22.60;34.99
48035;BME280;33812;46.480;6.834;2023-02-19T10:57:15;94667.19;;;22.54;35.23
48035;BME280;33812;46.480;6.834;2023-02-19T11:01:25;94659.22;;;22.56;35.51
48035;BME280;33812;46.480;6.834;2023-02-19T11:05:27;94655.69;;;22.55;35.22
48035;BME280;33812;46.480;6.834;2023-02-19T11:09:34;94651.84;;;22.49;35.25
48035;BME280;33812;46.480;6.834;2023-02-19T11:13:41;94653.06;;;22.48;34.15
48035;BME280;33812;46.480;6.834;2023-02-19T11:17:43;94649.56;;;22.44;33.93
48035;BME280;33812;46.480;6.834;2023-02-19T11:21:47;94647.94;;;22.46;33.45
48035;BME280;33812;46.480;6.834;2023-02-19T11:25:51;94647.22;;;22.42;34.05
48035;BME280;33812;46.480;6.834;2023-02-19T11:29:55;94643.72;;;22.38;32.48
48035;BME280;33812;46.480;6.834;2023-02-19T11:33:58;94630.25;;;22.40;32.97
48035;BME280;33812;46.480;6.834;2023-02-19T11:38:00;94628.56;;;22.46;33.43
48035;BME280;33812;46.480;6.834;2023-02-19T11:46:42;94622.16;;;22.50;32.83
48035;BME280;33812;46.480;6.834;2023-02-19T11:50:57;94616.69;;;22.46;34.11
48035;BME280;33812;46.480;6.834;2023-02-19T11:55:09;94606.84;;;22.45;33.75
48035;BME280;33812;46.480;6.834;2023-02-19T11:59:19;94599.28;;;22.45;34.06
48035;BME280;33812;46.480;6.834;2023-02-19T12:03:47;94590.47;;;22.51;33.88
48035;BME280;33812;46.480;6.834;2023-02-19T12:12:50;94580.91;;;22.55;33.89
48035;BME280;33812;46.480;6.834;2023-02-19T12:17:02;94575.28;;;22.59;33.74
48035;BME280;33812;46.480;6.834;2023-02-19T12:21:22;94568.16;;;22.58;34.12
48035;BME280;33812;46.480;6.834;2023-02-19T12:25:38;94563.41;;;22.58;33.75
48035;BME280;33812;46.480;6.834;2023-02-19T12:29:58;94557.44;;;22.60;33.76
48035;BME280;33812;46.480;6.834;2023-02-19T12:34:23;94559.41;;;22.59;33.32
48035;BME280;33812;46.480;6.834;2023-02-19T12:38:34;94560.28;;;22.56;33.73
48035;BME280;33812;46.480;6.834;2023-02-19T12:42:49;94560.72;;;22.55;31.85
48035;BME280;33812;46.480;6.834;2023-02-19T12:46:56;94560.78;;;22.51;32.06
48035;BME280;33812;46.480;6.834;2023-02-19T12:51:05;94554.38;;;22.54;32.03
48035;BME280;33812;46.480;6.834;2023-02-19T12:55:20;94547.31;;;22.53;32.34
48035;BME280;33812;46.480;6.834;2023-02-19T12:59:25;94546.16;;;22.51;31.49
48035;BME280;33812;46.480;6.834;2023-02-19T13:03:34;94560.34;;;22.53;30.91
48035;BME280;33812;46.480;6.834;2023-02-19T13:07:43;94561.91;;;22.54;30.40
48035;BME280;33812;46.480;6.834;2023-02-19T13:11:53;94551.75;;;22.47;30.07
48035;BME280;33812;46.480;6.834;2023-02-19T13:16:01;94547.00;;;22.48;30.42
48035;BME280;33812;46.480;6.834;2023-02-19T13:20:13;94541.47;;;22.48;30.51
48035;BME280;33812;46.480;6.834;2023-02-19T13:24:20;94537.47;;;22.49;30.04
48035;BME280;33812;46.480;6.834;2023-02-19T13:28:38;94538.69;;;22.48;29.78
48035;BME280;33812;46.480;6.834;2023-02-19T13:32:54;94530.75;;;22.50;30.02
48035;BME280;33812;46.480;6.834;2023-02-19T13:37:00;94537.47;;;22.49;30.21
48035;BME280;33812;46.480;6.834;2023-02-19T13:41:03;94537.47;;;22.49;30.05
48035;BME280;33812;46.480;6.834;2023-02-19T13:45:21;94533.88;;;22.52;30.10
48035;BME280;33812;46.480;6.834;2023-02-19T13:49:39;94545.38;;;22.50;29.90
48035;BME280;33812;46.480;6.834;2023-02-19T13:53:54;94544.97;;;22.52;30.20
48035;BME280;33812;46.480;6.834;2023-02-19T14:02:34;94531.44;;;22.54;30.60
48035;BME280;33812;46.480;6.834;2023-02-19T14:11:11;94523.22;;;22.50;29.78
48035;BME280;33812;46.480;6.834;2023-02-19T14:15:40;94520.09;;;22.48;30.34
48035;BME280;33812;46.480;6.834;2023-02-19T14:19:49;94514.50;;;22.52;30.05
48035;BME280;33812;46.480;6.834;2023-02-19T14:23:53;94511.38;;;22.50;29.85
48035;BME280;33812;46.480;6.834;2023-02-19T14:28:00;94490.84;;;22.47;29.86
48035;BME280;33812;46.480;6.834;2023-02-19T14:32:04;94493.53;;;22.51;29.94
48035;BME280;33812;46.480;6.834;2023-02-19T14:36:17;94478.03;;;22.53;30.06
48035;BME280;33812;46.480;6.834;2023-02-19T14:40:31;94472.94;;;22.52;29.94
48035;BME280;33812;46.480;6.834;2023-02-19T14:44:38;94483.66;;;22.50;29.76
48035;BME280;33812;46.480;6.834;2023-02-19T14:48:44;94496.38;;;22.47;29.87
48035;BME280;33812;46.480;6.834;2023-02-19T14:52:51;94486.94;;;22.44;29.81
48035;BME280;33812;46.480;6.834;2023-02-19T14:56:54;94484.97;;;22.45;30.92
48035;BME280;33812;46.480;6.834;2023-02-19T15:00:56;94500.28;;;22.50;31.22
48035;BME280;33812;46.480;6.834;2023-02-19T15:04:58;94507.81;;;22.49;31.58
48035;BME280;33812;46.480;6.834;2023-02-19T15:09:03;94511.00;;;22.48;30.88
48035;BME280;33812;46.480;6.834;2023-02-19T15:13:06;94516.53;;;22.48;30.61
48035;BME280;33812;46.480;6.834;2023-02-19T15:17:15;94511.38;;;22.50;30.73
48035;BME280;33812;46.480;6.834;2023-02-19T15:21:22;94506.63;;;22.50;30.90
48035;BME280;33812;46.480;6.834;2023-02-19T15:25:29;94504.97;;;22.53;30.90
48035;BME280;33812;46.480;6.834;2023-02-19T15:29:33;94505.75;;;22.53;31.16
48035;BME280;33812;46.480;6.834;2023-02-19T15:33:34;94510.50;;;22.53;30.98
48035;BME280;33812;46.480;6.834;2023-02-19T15:37:36;94512.03;;;22.54;30.88
48035;BME280;33812;46.480;6.834;2023-02-19T15:41:40;94516.81;;;22.53;30.97
48035;BME280;33812;46.480;6.834;2023-02-19T15:45:45;94512.56;;;22.49;31.01
48035;BME280;33812;46.480;6.834;2023-02-19T15:49:51;94505.31;;;22.55;31.47
48035;BME280;33812;46.480;6.834;2023-02-19T15:53:56;94510.78;;;22.58;32.05
48035;BME280;33812;46.480;6.834;2023-02-19T15:58:04;94506.34;;;22.61;32.28
48035;BME280;33812;46.480;6.834;2023-02-19T16:02:09;94509.13;;;22.61;31.81
48035;BME280;33812;46.480;6.834;2023-02-19T16:06:14;94515.19;;;22.56;31.41
48035;BME280;33812;46.480;6.834;2023-02-19T16:10:21;94516.31;;;22.58;31.73
48035;BME280;33812;46.480;6.834;2023-02-19T16:14:29;94525.41;;;22.59;31.62
48035;BME280;33812;46.480;6.834;2023-02-19T16:18:31;94531.66;;;22.63;31.96
48035;BME280;33812;46.480;6.834;2023-02-19T16:22:40;94530.97;;;22.59;32.09
48035;BME280;33812;46.480;6.834;2023-02-19T16:26:44;94522.97;;;22.61;32.53
48035;BME280;33812;46.480;6.834;2023-02-19T16:30:54;94524.50;;;22.66;33.14
48035;BME280;33812;46.480;6.834;2023-02-19T16:34:56;94528.47;;;22.65;32.99
48035;BME280;33812;46.480;6.834;2023-02-19T16:43:27;94537.94;;;22.67;33.47
48035;BME280;33812;46.480;6.834;2023-02-19T16:47:33;94541.56;;;22.64;33.46
48035;BME280;33812;46.480;6.834;2023-02-19T16:51:37;94555.47;;;22.61;33.31
48035;BME280;33812;46.480;6.834;2023-02-19T16:55:38;94559.38;;;22.63;33.09
48035;BME280;33812;46.480;6.834;2023-02-19T16:59:40;94574.38;;;22.66;33.16
48035;BME280;33812;46.480;6.834;2023-02-19T17:03:44;94568.03;;;22.65;32.59
48035;BME280;33812;46.480;6.834;2023-02-19T17:07:46;94586.56;;;22.68;32.98
48035;BME280;33812;46.480;6.834;2023-02-19T17:11:48;94598.03;;;22.70;33.31
48035;BME280;33812;46.480;6.834;2023-02-19T17:15:50;94593.69;;;22.69;33.63
48035;BME280;33812;46.480;6.834;2023-02-19T17:19:53;94600.78;;;22.70;33.97
48035;BME280;33812;46.480;6.834;2023-02-19T17:23:55;94598.81;;;22.71;33.74
48035;BME280;33812;46.480;6.834;2023-02-19T17:27:58;94598.03;;;22.70;33.84
48035;BME280;33812;46.480;6.834;2023-02-19T17:31:59;94607.56;;;22.69;33.97
48035;BME280;33812;46.480;6.834;2023-02-19T17:36:03;94609.09;;;22.70;33.95
48035;BME280;33812;46.480;6.834;2023-02-19T17:40:18;94615.44;;;22.71;33.70
48035;BME280;33812;46.480;6.834;2023-02-19T17:44:20;94630.84;;;22.72;33.63
48035;BME280;33812;46.480;6.834;2023-02-19T17:48:23;94624.06;;;22.73;33.68
48035;BME280;33812;46.480;6.834;2023-02-19T17:52:26;94627.13;;;22.79;33.23
48035;BME280;33812;46.480;6.834;2023-02-19T17:56:28;94624.44;;;22.75;33.28
48035;BME280;33812;46.480;6.834;2023-02-19T18:00:30;94641.06;;;22.75;33.78
48035;BME280;33812;46.480;6.834;2023-02-19T18:04:32;94641.06;;;22.75;33.38
48035;BME280;33812;46.480;6.834;2023-02-19T18:08:36;94643.84;;;22.75;33.10
48035;BME280;33812;46.480;6.834;2023-02-19T18:12:39;94643.06;;;22.75;33.10
48035;BME280;33812;46.480;6.834;2023-02-19T18:16:44;94650.31;;;22.68;31.61
48035;BME280;33812;46.480;6.834;2023-02-19T18:20:46;94650.38;;;22.65;32.79
48035;BME280;33812;46.480;6.834;2023-02-19T18:24:53;94652.84;;;22.59;32.04
48035;BME280;33812;46.480;6.834;2023-02-19T18:28:55;94654.66;;;22.69;32.32
48035;BME280;33812;46.480;6.834;2023-02-19T18:32:58;94647.03;;;22.74;32.73
48035;BME280;33812;46.480;6.834;2023-02-19T18:37:01;94644.63;;;22.76;33.65
48035;BME280;33812;46.480;6.834;2023-02-19T18:41:04;94654.50;;;22.77;35.02
48035;BME280;33812;46.480;6.834;2023-02-19T18:45:06;94638.22;;;22.79;35.30
48035;BME280;33812;46.480;6.834;2023-02-19T18:49:08;94639.81;;;22.80;35.26
48035;BME280;33812;46.480;6.834;2023-02-19T18:53:10;94637.34;;;22.82;35.93
48035;BME280;33812;46.480;6.834;2023-02-19T18:57:14;94647.69;;;22.81;35.93
48035;BME280;33812;46.480;6.834;2023-02-19T19:01:16;94627.84;;;22.83;35.99
48035;BME280;33812;46.480;6.834;2023-02-19T19:05:19;94629.03;;;22.82;36.12
48035;BME280;33812;46.480;6.834;2023-02-19T19:09:22;94634.59;;;22.82;36.36
48035;BME280;33812;46.480;6.834;2023-02-19T19:13:25;94633.38;;;22.83;36.40
48035;BME280;33812;46.480;6.834;2023-02-19T19:17:28;94642.34;;;22.70;32.26
48035;BME280;33812;46.480;6.834;2023-02-19T19:21:29;94649.50;;;21.28;30.08
48035;BME280;33812;46.480;6.834;2023-02-19T19:25:33;94640.28;;;20.44;29.82
48035;BME280;33812;46.480;6.834;2023-02-19T19:29:36;94639.84;;;21.40;30.26
48035;BME280;33812;46.480;6.834;2023-02-19T19:33:38;94642.00;;;22.04;30.68
48035;BME280;33812;46.480;6.834;2023-02-19T19:37:39;94647.50;;;22.28;30.73
48035;BME280;33812;46.480;6.834;2023-02-19T19:41:41;94650.84;;;22.39;30.87
48035;BME280;33812;46.480;6.834;2023-02-19T19:45:44;94656.69;;;22.45;31.21
48035;BME280;33812;46.480;6.834;2023-02-19T19:49:46;94655.81;;;22.48;31.61
48035;BME280;33812;46.480;6.834;2023-02-19T19:53:48;94652.19;;;22.51;31.48
48035;BME280;33812;46.480;6.834;2023-02-19T19:57:50;94655.34;;;22.53;32.18
48035;BME280;33812;46.480;6.834;2023-02-19T20:01:56;94653.00;;;22.52;33.73
48035;BME280;33812;46.480;6.834;2023-02-19T20:05:58;94656.88;;;22.54;34.17
48035;BME280;33812;46.480;6.834;2023-02-19T20:10:00;94636.31;;;22.55;34.69
48035;BME280;33812;46.480;6.834;2023-02-19T20:14:02;94631.88;;;22.58;34.92
48035;BME280;33812;46.480;6.834;2023-02-19T20:18:06;94629.91;;;22.58;35.38
48035;BME280;33812;46.480;6.834;2023-02-19T20:22:20;94642.50;;;22.63;35.44
48035;BME280;33812;46.480;6.834;2023-02-19T20:26:26;94649.94;;;22.66;35.77
48035;BME280;33812;46.480;6.834;2023-02-19T20:30:28;94653.16;;;22.65;35.80
48035;BME280;33812;46.480;6.834;2023-02-19T20:34:36;94667.00;;;22.65;36.00
48035;BME280;33812;46.480;6.834;2023-02-19T20:38:43;94668.16;;;22.67;36.15
48035;BME280;33812;46.480;6.834;2023-02-19T20:42:54;94671.69;;;22.68;36.01
48035;BME280;33812;46.480;6.834;2023-02-19T20:46:59;94660.69;;;22.64;36.01
48035;BME280;33812;46.480;6.834;2023-02-19T20:51:04;94671.28;;;22.69;36.17
48035;BME280;33812;46.480;6.834;2023-02-19T20:55:08;94684.34;;;22.69;36.00
48035;BME280;33812;46.480;6.834;2023-02-19T20:59:11;94689.97;;;22.65;35.93
48035;BME280;33812;46.480;6.834;2023-02-19T21:03:12;94696.28;;;22.66;35.95
48035;BME280;33812;46.480;6.834;2023-02-19T21:07:20;94695.94;;;22.64;35.88
48035;BME280;33812;46.480;6.834;2023-02-19T21:11:24;94708.53;;;22.44;35.97
48035;BME280;33812;46.480;6.834;2023-02-19T21:15:26;94711.44;;;22.57;36.34
48035;BME280;33812;46.480;6.834;2023-02-19T21:19:30;94691.97;;;22.61;35.47
48035;BME280;33812;46.480;6.834;2023-02-19T21:23:35;94693.59;;;22.62;34.32
48035;BME280;33812;46.480;6.834;2023-02-19T21:27:38;94691.97;;;22.61;34.58
48035;BME280;33812;46.480;6.834;2023-02-19T21:31:42;94684.06;;;22.63;34.68
48035;BME280;33812;46.480;6.834;2023-02-19T21:35:45;94688.81;;;22.63;34.59
48035;BME280;33812;46.480;6.834;2023-02-19T21:39:48;94690.41;;;22.60;34.50
48035;BME280;33812;46.480;6.834;2023-02-19T21:43:50;94700.72;;;22.59;34.51
48035;BME280;33812;46.480;6.834;2023-02-19T21:47:58;94704.28;;;22.60;34.40
48035;BME280;33812;46.480;6.834;2023-02-19T21:52:01;94713.81;;;22.59;34.39
48035;BME280;33812;46.480;6.834;2023-02-19T21:56:05;94713.81;;;22.59;34.46
48035;BME280;33812;46.480;6.834;2023-02-19T22:00:14;94715.34;;;22.60;33.33
48035;BME280;33812;46.480;6.834;2023-02-19T22:04:20;94718.91;;;22.61;33.89
48035;BME280;33812;46.480;6.834;2023-02-19T22:08:30;94723.66;;;22.60;33.71
48035;BME280;33812;46.480;6.834;2023-02-19T22:12:33;94726.44;;;22.60;33.64